createdAt,value
2023-03-22T00:00:00.706Z,78.70
2023-03-22T00:02:30.700Z,78.80
2023-03-22T00:04:59.095Z,78.90
2023-03-22T00:07:27.958Z,79.00
2023-03-22T00:09:56.243Z,79.10
2023-03-22T00:12:24.797Z,79.10
2023-03-22T00:14:53.619Z,79.20
2023-03-22T00:17:23.015Z,79.30
2023-03-22T00:19:54.534Z,79.30
2023-03-22T00:22:22.982Z,79.40
2023-03-22T00:24:51.291Z,79.50
2023-03-22T00:27:19.613Z,79.50
2023-03-22T00:29:48.028Z,79.50
2023-03-22T00:32:16.300Z,79.50
2023-03-22T00:34:44.671Z,79.50
2023-03-22T00:37:16.426Z,79.50
2023-03-22T00:39:45.124Z,79.50
2023-03-22T00:42:13.439Z,79.50
2023-03-22T00:44:41.901Z,79.60
2023-03-22T00:47:10.130Z,79.60
2023-03-22T00:49:38.546Z,79.70
2023-03-22T00:52:06.950Z,79.80
2023-03-22T00:54:36.503Z,79.90
2023-03-22T00:57:04.815Z,80.00
2023-03-22T00:59:38.648Z,80.00
2023-03-22T01:02:07.060Z,80.10
2023-03-22T01:04:35.671Z,80.10
2023-03-22T01:07:07.737Z,80.10
2023-03-22T01:09:37.354Z,80.10
2023-03-22T01:12:05.806Z,80.10
2023-03-22T01:14:33.953Z,80.20
2023-03-22T01:17:02.152Z,80.20
2023-03-22T01:19:30.912Z,80.30
2023-03-22T01:21:59.214Z,80.30
2023-03-22T01:24:27.406Z,80.30
2023-03-22T01:26:57.160Z,80.40
2023-03-22T01:29:25.723Z,80.40
2023-03-22T01:31:54.334Z,80.40
2023-03-22T01:34:22.907Z,80.30
2023-03-22T01:36:51.288Z,80.30
2023-03-22T01:39:19.467Z,80.40
2023-03-22T01:41:47.666Z,80.40
2023-03-22T01:44:19.914Z,80.50
2023-03-22T01:46:50.011Z,80.40
2023-03-22T01:49:24.048Z,80.50
2023-03-22T01:51:55.014Z,80.40
2023-03-22T01:54:29.324Z,80.40
2023-03-22T01:56:58.010Z,80.40
2023-03-22T01:59:28.886Z,80.50
2023-03-22T02:02:00.121Z,80.50
2023-03-22T02:04:34.301Z,80.50
2023-03-22T02:07:09.681Z,80.60
2023-03-22T02:09:41.525Z,80.70
2023-03-22T02:12:21.623Z,80.70
2023-03-22T02:15:05.609Z,80.70
2023-03-22T02:17:51.295Z,80.80
2023-03-22T02:21:25.223Z,80.80
2023-03-22T02:25:01.631Z,80.90
2023-03-22T02:27:42.019Z,80.90
2023-03-22T02:30:55.771Z,81.00
2023-03-22T02:34:15.700Z,81.00
2023-03-22T02:37:23.302Z,81.00
2023-03-22T02:39:57.865Z,81.10
2023-03-22T02:42:41.886Z,81.30
2023-03-22T02:45:15.861Z,81.30
2023-03-22T02:47:54.631Z,81.40
2023-03-22T02:50:28.561Z,81.50
2023-03-22T02:53:04.592Z,81.40
2023-03-22T02:55:39.230Z,81.40
2023-03-22T02:58:13.509Z,81.50
2023-03-22T03:00:42.968Z,81.50
2023-03-22T03:03:18.275Z,81.50
2023-03-22T03:05:52.884Z,81.60
2023-03-22T03:08:22.210Z,81.50
2023-03-22T03:10:52.966Z,81.50
2023-03-22T03:13:21.379Z,81.50
2023-03-22T03:15:53.907Z,81.50
2023-03-22T03:18:38.556Z,81.50
2023-03-22T03:21:18.092Z,81.50
2023-03-22T03:23:56.021Z,81.40
2023-03-22T03:26:36.684Z,81.50
2023-03-22T03:29:10.467Z,81.50
2023-03-22T03:31:45.127Z,81.60
2023-03-22T03:34:20.582Z,81.60
2023-03-22T03:36:56.135Z,81.70
2023-03-22T03:39:28.398Z,81.70
2023-03-22T03:41:58.746Z,81.70
2023-03-22T03:44:27.617Z,81.70
2023-03-22T03:46:56.326Z,81.80
2023-03-22T03:49:24.921Z,81.80
2023-03-22T03:51:56.747Z,81.80
2023-03-22T03:54:25.192Z,81.80
2023-03-22T03:56:53.693Z,81.90
2023-03-22T03:59:23.449Z,82.00
2023-03-22T04:01:52.448Z,81.90
2023-03-22T04:04:26.777Z,81.90
2023-03-22T04:06:56.793Z,81.90
2023-03-22T04:09:27.317Z,82.00
2023-03-22T04:11:56.102Z,82.00
2023-03-22T04:14:26.756Z,81.90
2023-03-22T04:16:56.371Z,81.90
2023-03-22T04:19:25.131Z,81.90
2023-03-22T04:21:53.639Z,81.90
2023-03-22T04:24:22.081Z,81.80
2023-03-22T04:26:50.684Z,81.80
2023-03-22T04:29:19.014Z,81.70
2023-03-22T04:31:49.067Z,81.70
2023-03-22T04:34:17.230Z,81.60
2023-03-22T04:36:46.325Z,81.70
2023-03-22T04:39:14.575Z,81.80
2023-03-22T04:41:42.787Z,81.90
2023-03-22T04:44:10.923Z,81.90
2023-03-22T04:46:39.163Z,81.90
2023-03-22T04:49:08.736Z,81.80
2023-03-22T04:51:36.918Z,81.80
2023-03-22T04:54:05.342Z,81.70
2023-03-22T04:56:33.567Z,81.80
2023-03-22T04:59:01.763Z,81.70
2023-03-22T05:01:30.058Z,81.70
2023-03-22T05:03:58.426Z,81.70
2023-03-22T05:06:28.085Z,81.80
2023-03-22T05:08:56.535Z,81.80
2023-03-22T05:11:27.776Z,81.80
2023-03-22T05:13:56.318Z,81.70
2023-03-22T05:16:25.311Z,81.70
2023-03-22T05:18:54.505Z,81.80
2023-03-22T05:21:28.354Z,81.70
2023-03-22T05:23:59.617Z,81.90
2023-03-22T05:26:28.285Z,81.90
2023-03-22T05:28:57.226Z,81.80
2023-03-22T05:31:28.507Z,81.80
2023-03-22T05:33:56.988Z,81.80
2023-03-22T05:36:25.215Z,81.80
2023-03-22T05:38:53.468Z,81.70
2023-03-22T05:41:23.334Z,81.80
2023-03-22T05:43:51.647Z,81.70
2023-03-22T05:46:19.847Z,81.70
2023-03-22T05:48:48.206Z,81.60
2023-03-22T05:51:19.765Z,81.60
2023-03-22T05:53:48.812Z,81.60
2023-03-22T05:56:21.803Z,81.70
2023-03-22T05:58:52.132Z,81.70
2023-03-22T06:01:20.537Z,81.70
2023-03-22T06:03:49.372Z,81.50
2023-03-22T06:06:17.842Z,81.50
2023-03-22T06:08:46.034Z,81.60
2023-03-22T06:11:14.273Z,81.70
2023-03-22T06:13:42.460Z,81.50
2023-03-22T06:16:12.201Z,81.50
2023-03-22T06:18:40.431Z,81.50
2023-03-22T06:21:09.166Z,81.40
2023-03-22T06:23:37.375Z,81.50
2023-03-22T06:26:06.412Z,81.50
2023-03-22T06:28:34.610Z,81.40
2023-03-22T06:31:08.348Z,81.30
2023-03-22T06:33:38.445Z,81.20
2023-03-22T06:36:07.934Z,81.20
2023-03-22T06:38:36.292Z,81.10
2023-03-22T06:41:04.665Z,80.80
2023-03-22T06:43:32.840Z,80.80
2023-03-22T06:46:01.226Z,80.70
2023-03-22T06:48:29.527Z,80.60
2023-03-22T06:50:59.614Z,80.50
2023-03-22T06:53:27.839Z,80.30
2023-03-22T06:55:56.146Z,80.20
2023-03-22T06:58:24.535Z,80.00
2023-03-22T07:00:52.828Z,79.80
2023-03-22T07:03:21.093Z,79.70
2023-03-22T07:05:49.322Z,79.60
2023-03-22T07:08:19.048Z,79.40
2023-03-22T07:10:51.447Z,79.30
2023-03-22T07:13:19.667Z,79.30
2023-03-22T07:15:48.070Z,78.90
2023-03-22T07:18:16.352Z,79.00
2023-03-22T07:20:44.544Z,79.20
2023-03-22T07:23:12.885Z,79.00
2023-03-22T07:25:42.476Z,78.80
2023-03-22T07:28:11.470Z,78.40
2023-03-22T07:30:40.455Z,78.40
2023-03-22T07:33:11.447Z,78.40
2023-03-22T07:35:40.348Z,78.20
2023-03-22T07:38:08.590Z,77.90
2023-03-22T07:40:37.774Z,78.30
2023-03-22T07:43:07.799Z,77.80
2023-03-22T07:45:36.797Z,77.90
2023-03-22T07:48:05.504Z,77.70
2023-03-22T07:50:33.869Z,77.40
2023-03-22T07:53:03.785Z,77.60
2023-03-22T07:55:32.000Z,77.10
2023-03-22T07:58:00.386Z,77.30
2023-03-22T08:00:30.444Z,77.40
2023-03-22T08:02:58.679Z,77.60
2023-03-22T08:05:27.232Z,77.30
2023-03-22T08:07:56.865Z,77.50
2023-03-22T08:10:25.180Z,77.50
2023-03-22T08:12:53.349Z,77.50
2023-03-22T08:15:22.720Z,77.70
2023-03-22T08:17:52.843Z,77.20
2023-03-22T08:20:21.083Z,77.40
2023-03-22T08:22:49.273Z,76.80
2023-03-22T08:25:17.750Z,76.50
2023-03-22T08:27:46.001Z,76.50
2023-03-22T08:30:16.046Z,75.60
2023-03-22T08:32:44.402Z,75.30
2023-03-22T08:35:14.268Z,75.10
2023-03-22T08:37:42.595Z,75.00
2023-03-22T08:40:12.727Z,75.20
2023-03-22T08:42:40.980Z,74.10
2023-03-22T08:45:10.631Z,74.20
2023-03-22T08:47:38.973Z,74.20
2023-03-22T08:50:08.872Z,73.80
2023-03-22T08:52:38.545Z,73.10
2023-03-22T08:55:09.420Z,73.70
2023-03-22T08:57:38.965Z,73.60
2023-03-22T09:00:11.046Z,73.00
2023-03-22T09:02:39.255Z,72.50
2023-03-22T09:05:08.350Z,72.10
2023-03-22T09:07:37.936Z,72.30
2023-03-22T09:10:07.709Z,72.10
2023-03-22T09:12:35.975Z,72.50
2023-03-22T09:15:06.176Z,72.40
2023-03-22T09:17:34.578Z,72.00
2023-03-22T09:20:12.386Z,71.60
2023-03-22T09:22:42.815Z,71.50
2023-03-22T09:25:13.079Z,71.40
2023-03-22T09:27:42.064Z,71.20
2023-03-22T09:30:11.604Z,72.20
2023-03-22T09:32:39.800Z,71.80
2023-03-22T09:35:08.870Z,70.70
2023-03-22T09:37:37.118Z,70.40
2023-03-22T09:40:09.472Z,70.30
2023-03-22T09:42:42.229Z,69.50
2023-03-22T09:45:19.749Z,69.40
2023-03-22T09:47:52.730Z,69.90
2023-03-22T09:50:23.501Z,69.80
2023-03-22T09:52:52.476Z,69.70
2023-03-22T09:55:26.340Z,69.10
2023-03-22T09:58:04.705Z,69.70
2023-03-22T10:00:43.448Z,69.40
2023-03-22T10:03:25.008Z,69.50
2023-03-22T10:05:59.295Z,69.50
2023-03-22T10:08:49.886Z,68.90
2023-03-22T10:11:27.790Z,68.80
2023-03-22T10:14:03.449Z,69.50
2023-03-22T10:16:36.053Z,68.60
2023-03-22T10:19:14.682Z,69.50
2023-03-22T10:21:43.199Z,68.60
2023-03-22T10:24:18.040Z,69.40
2023-03-22T10:26:49.936Z,69.00
2023-03-22T10:29:27.174Z,69.10
2023-03-22T10:31:56.307Z,69.20
2023-03-22T10:34:30.982Z,69.60
2023-03-22T10:37:02.642Z,69.80
2023-03-22T10:39:34.839Z,68.70
2023-03-22T10:42:08.643Z,69.50
2023-03-22T10:44:48.107Z,69.60
2023-03-22T10:47:18.648Z,68.90
2023-03-22T10:49:53.644Z,69.10
2023-03-22T10:52:37.686Z,68.90
2023-03-22T10:55:11.036Z,69.10
2023-03-22T10:57:42.972Z,68.90
2023-03-22T11:00:17.365Z,69.20
2023-03-22T11:02:52.556Z,69.40
2023-03-22T11:05:25.862Z,69.90
2023-03-22T11:07:55.211Z,69.90
2023-03-22T11:10:32.803Z,69.10
2023-03-22T11:13:21.527Z,69.00
2023-03-22T11:15:54.735Z,69.20
2023-03-22T11:18:23.647Z,70.00
2023-03-22T11:20:59.682Z,69.90
2023-03-22T11:23:29.905Z,70.70
2023-03-22T11:26:07.408Z,70.10
2023-03-22T11:28:43.600Z,69.90
2023-03-22T11:31:14.026Z,70.90
2023-03-22T11:33:56.908Z,70.20
2023-03-22T11:36:25.738Z,70.00
2023-03-22T11:39:00.605Z,69.70
2023-03-22T11:41:31.591Z,70.10
2023-03-22T11:44:05.963Z,69.80
2023-03-22T11:46:36.526Z,69.50
2023-03-22T11:49:09.999Z,69.60
2023-03-22T11:51:40.526Z,70.30
2023-03-22T11:54:17.185Z,69.60
2023-03-22T11:56:50.377Z,69.70
2023-03-22T11:59:26.855Z,69.90
2023-03-22T12:02:04.231Z,69.50
2023-03-22T12:04:39.475Z,69.60
2023-03-22T12:07:16.480Z,69.60
2023-03-22T12:09:52.366Z,70.20
2023-03-22T12:12:26.094Z,69.30
2023-03-22T12:15:02.378Z,68.90
2023-03-22T12:17:37.957Z,69.40
2023-03-22T12:20:17.034Z,69.60
2023-03-22T12:22:51.246Z,69.80
2023-03-22T12:25:23.219Z,70.10
2023-03-22T12:27:55.894Z,70.00
2023-03-22T12:30:28.714Z,70.10
2023-03-22T12:33:04.112Z,70.10
2023-03-22T12:35:36.264Z,69.70
2023-03-22T12:38:16.916Z,69.50
2023-03-22T12:40:45.873Z,69.60
2023-03-22T12:43:20.090Z,69.80
2023-03-22T12:45:54.658Z,70.20
2023-03-22T12:48:34.439Z,70.60
2023-03-22T12:51:08.243Z,70.40
2023-03-22T12:53:42.550Z,70.00
2023-03-22T12:56:15.769Z,70.30
2023-03-22T12:58:47.937Z,70.50
2023-03-22T13:01:30.446Z,70.60
2023-03-22T13:03:59.542Z,71.50
2023-03-22T13:06:36.844Z,71.70
2023-03-22T13:09:20.237Z,71.60
2023-03-22T13:11:51.727Z,72.00
2023-03-22T13:14:57.744Z,71.90
2023-03-22T13:17:44.870Z,72.10
2023-03-22T13:20:28.761Z,71.70
2023-03-22T13:23:11.214Z,71.60
2023-03-22T13:25:41.102Z,71.40
2023-03-22T13:28:27.438Z,71.90
2023-03-22T13:30:58.767Z,71.80
2023-03-22T13:33:30.480Z,71.70
2023-03-22T13:36:01.356Z,71.60
2023-03-22T13:38:34.227Z,70.80
2023-03-22T13:41:05.788Z,70.80
2023-03-22T13:43:37.105Z,71.10
2023-03-22T13:46:32.694Z,71.30
2023-03-22T13:49:46.875Z,71.30
2023-03-22T13:52:31.834Z,71.40
2023-03-22T13:55:00.613Z,71.60
2023-03-22T13:58:00.061Z,71.30
2023-03-22T14:00:56.497Z,71.20
2023-03-22T14:03:31.199Z,71.10
2023-03-22T14:06:13.209Z,71.50
2023-03-22T14:08:44.119Z,71.20
2023-03-22T14:11:24.093Z,70.60
2023-03-22T14:13:58.601Z,70.60
2023-03-22T14:16:38.302Z,70.90
2023-03-22T14:19:08.795Z,70.50
2023-03-22T14:21:42.976Z,70.10
